createdAt,value
2023-05-16T00:34:35.998Z,4.32
2023-05-16T00:39:45.505Z,4.27
2023-05-16T00:44:55.331Z,4.27
2023-05-16T00:50:03.828Z,4.22
2023-05-16T00:55:12.230Z,4.22
2023-05-16T01:00:21.363Z,4.12
2023-05-16T01:05:30.658Z,4.12
2023-05-16T01:10:38.945Z,4.08
2023-05-16T01:15:48.909Z,4.08
2023-05-16T01:20:57.227Z,4.06
2023-05-16T01:26:06.967Z,4.06
2023-05-16T01:31:16.513Z,4.05
2023-05-16T01:36:25.816Z,4.05
2023-05-16T01:41:35.622Z,4
2023-05-16T01:46:44.319Z,4
2023-05-16T01:51:53.816Z,3.88
2023-05-16T01:57:04.226Z,3.88
2023-05-16T02:48:37.984Z,3.88
2023-05-16T02:53:47.736Z,3.88
2023-05-16T02:58:56.230Z,3.85
2023-05-16T03:04:07.048Z,3.85
2023-05-16T03:09:16.403Z,3.89
2023-05-16T03:14:24.865Z,3.89
2023-05-16T03:19:33.335Z,3.88
2023-05-16T03:24:42.756Z,3.88
2023-05-16T03:29:51.613Z,3.92
2023-05-16T03:35:00.158Z,3.92
2023-05-16T03:40:09.184Z,3.89
2023-05-16T04:26:30.625Z,3.92
2023-05-16T04:31:41.790Z,3.9
2023-05-16T04:36:52.061Z,3.9
2023-05-16T04:42:00.565Z,3.86
2023-05-16T04:47:09.028Z,3.86
2023-05-16T04:52:18.803Z,3.9
2023-05-16T04:57:27.902Z,3.9
2023-05-16T05:02:37.274Z,3.84
2023-05-16T05:07:46.129Z,3.84
2023-05-16T05:12:55.336Z,3.87
2023-05-16T05:18:05.770Z,3.87
2023-05-16T05:23:14.235Z,3.84
2023-05-16T05:28:22.637Z,3.84
2023-05-16T05:33:33.067Z,3.84
2023-05-16T05:38:41.519Z,3.87
2023-05-16T05:43:50.654Z,3.87
2023-05-16T05:48:59.736Z,3.85
2023-05-16T05:54:09.520Z,3.85
2023-05-16T05:59:18.652Z,3.87
2023-05-16T06:04:29.031Z,3.87
2023-05-16T06:56:00.232Z,3.9
2023-05-16T07:01:10.158Z,3.87
2023-05-16T07:06:19.187Z,3.87
2023-05-16T07:11:28.838Z,3.91
2023-05-16T07:16:38.309Z,3.91
2023-05-16T07:21:47.762Z,3.87
2023-05-16T07:26:56.231Z,3.87
2023-05-16T08:13:18.330Z,3.88
2023-05-16T08:18:26.825Z,3.88
2023-05-16T08:23:37.185Z,3.88
2023-05-16T08:28:45.674Z,3.88
2023-05-16T08:33:54.147Z,3.88
2023-05-16T08:39:03.296Z,3.89
2023-05-16T08:44:12.453Z,3.89
2023-05-16T08:49:20.925Z,3.89
2023-05-16T08:54:30.039Z,3.89
2023-05-16T08:59:38.487Z,3.9
2023-05-16T09:04:47.602Z,3.9
2023-05-16T09:09:57.992Z,3.89
2023-05-16T09:15:08.457Z,3.89
2023-05-16T09:20:18.187Z,3.9
2023-05-16T09:25:33.124Z,3.9
2023-05-16T09:30:39.568Z,3.92
2023-05-16T09:35:51.681Z,3.92
2023-05-16T09:41:00.004Z,3.92
2023-05-16T09:46:10.329Z,3.92
2023-05-16T09:51:39.109Z,4.02
2023-05-16T09:56:49.511Z,4.02
2023-05-16T10:01:59.965Z,3.95
2023-05-16T10:07:10.957Z,3.95
2023-05-16T10:12:22.641Z,3.94
2023-05-16T10:17:33.009Z,3.94
2023-05-16T10:22:42.165Z,3.96
2023-05-16T10:27:50.660Z,3.96
2023-05-16T10:32:59.361Z,3.93
2023-05-16T10:38:08.858Z,3.93
2023-05-16T10:43:17.426Z,3.93
2023-05-16T10:48:27.255Z,3.93
2023-05-16T10:53:36.899Z,3.94
2023-05-16T10:58:49.434Z,3.94
2023-05-16T11:04:00.823Z,3.96
2023-05-16T11:09:09.348Z,3.96
2023-05-16T11:14:18.463Z,3.95
2023-05-16T11:19:27.561Z,3.95
2023-05-16T11:24:36.784Z,3.98
2023-05-16T11:29:47.160Z,4.01
2023-05-16T11:34:56.213Z,4.01
2023-05-16T11:40:08.848Z,4.01
2023-05-16T12:27:24.423Z,3.97
2023-05-16T13:29:18.344Z,3.95
2023-05-16T13:34:26.785Z,3.96
2023-05-16T13:39:37.830Z,3.96
2023-05-16T13:44:48.258Z,3.96
2023-05-16T13:49:58.656Z,3.96
2023-05-16T13:55:08.397Z,3.99
2023-05-16T14:00:46.668Z,3.98
2023-05-16T14:05:28.567Z,3.98
2023-05-16T14:10:37.034Z,3.98
2023-05-16T14:15:47.225Z,3.98
2023-05-16T14:20:56.692Z,4.02
2023-05-16T14:26:08.059Z,4.02
2023-05-16T14:31:22.200Z,3.98
2023-05-16T14:36:27.122Z,3.98
2023-05-16T14:41:37.614Z,4.05
2023-05-16T14:46:48.684Z,4.05
2023-05-16T14:51:57.064Z,3.97
2023-05-16T14:57:06.181Z,3.97
2023-05-16T15:02:15.512Z,3.99
2023-05-16T15:07:41.034Z,3.99
2023-05-16T15:12:50.149Z,4.01
2023-05-16T15:18:00.253Z,4.01
2023-05-16T15:23:10.277Z,4.02
2023-05-16T15:28:22.988Z,4.02
2023-05-16T15:33:29.841Z,4.03
2023-05-16T15:38:39.596Z,4.03
2023-05-16T15:43:49.359Z,4.03
2023-05-16T15:48:57.858Z,4.03
2023-05-16T15:54:09.533Z,4
2023-05-16T15:59:18.010Z,4
2023-05-16T16:04:27.728Z,4.02
2023-05-16T16:09:36.895Z,4.02
2023-05-16T16:14:45.351Z,4
2023-05-16T16:19:54.460Z,4
2023-05-16T16:25:04.241Z,4
2023-05-16T17:11:30.244Z,4.01
2023-05-16T17:16:40.198Z,4.01
2023-05-16T17:21:49.825Z,4.05
2023-05-16T18:18:34.138Z,4.02
2023-05-16T18:23:43.594Z,4.05
2023-05-16T18:28:52.759Z,4.05
2023-05-16T18:34:01.315Z,4.01
2023-05-16T18:39:09.615Z,4.01
2023-05-16T18:44:18.835Z,4.01
2023-05-16T18:49:29.830Z,4.01
2023-05-16T18:54:39.598Z,3.98
2023-05-16T18:59:53.885Z,3.98
2023-05-16T19:05:02.377Z,3.99
2023-05-16T19:10:08.431Z,3.99
2023-05-16T19:15:17.401Z,3.98
2023-05-16T19:20:27.075Z,3.98
2023-05-16T19:25:36.268Z,4
2023-05-16T19:30:44.717Z,4
2023-05-16T19:35:53.904Z,3.98
2023-05-16T19:41:04.265Z,3.98
2023-05-16T19:46:14.630Z,3.96
2023-05-16T19:51:42.643Z,3.96
2023-05-16T19:56:36.713Z,3.94
2023-05-16T20:01:46.038Z,3.97
2023-05-16T20:06:56.218Z,3.97
2023-05-16T20:12:04.096Z,3.95
2023-05-16T20:17:17.009Z,3.95
2023-05-16T20:22:26.827Z,3.96
2023-05-16T20:27:35.281Z,3.96
2023-05-16T21:14:01.179Z,3.92
2023-05-16T21:19:10.885Z,3.92
2023-05-16T21:24:19.462Z,3.92
2023-05-16T21:29:28.536Z,3.92
2023-05-16T21:34:37.666Z,3.92
2023-05-16T21:39:46.262Z,3.92
2023-05-16T21:44:55.231Z,3.93
2023-05-16T21:50:04.418Z,3.93
2023-05-16T21:55:17.426Z,3.92
2023-05-16T22:26:14.647Z,3.89
2023-05-16T22:31:25.027Z,3.89
2023-05-16T22:57:15.118Z,3.89
2023-05-16T23:02:24.515Z,3.86
2023-05-16T23:07:33.367Z,3.86
2023-05-16T23:12:42.520Z,3.88
2023-05-16T23:17:52.760Z,3.88
2023-05-16T23:23:01.368Z,3.86
2023-05-16T23:28:11.104Z,3.86
2023-05-16T23:33:21.528Z,3.87
2023-05-16T23:38:29.978Z,3.87
2023-05-16T23:43:39.096Z,3.88
2023-05-16T23:59:07.105Z,3.85
